Weather Data

Pearl Creek Farm: 8878 N Farm Road 75, Walnut Grove MO 65770

<== Previous Day (Friday 28 Nov 2014) | Next Day (Sunday 30 Nov 2014) ==>

Summary Precipitation Data For Saturday 29 November 2014

ElementValueUnits
Precipitation0"
Notes(none)
SourcePearl Creek Farm

Summary Temperature Data For Saturday 29 November 2014

ElementValueUnits
High Temperature71 oF
Low Temperature44 oF
Average Temperature58 oF
High Humidity89 %
Low Humidity44 %
Average Humidity68 %
SourcePearl Creek Farm

Detail Temperature Data For Saturday 29 November 2014

Date / TimeTemp (F)RH (%)Dew Pt (F)Report Date / TimeSource
2014-11-29 00:00:00 50 78 43.3 2015-01-01 13:17:33 Pearl Creek Farm
2014-11-29 00:30:00 50 78 43.4 2015-01-01 13:17:33 Pearl Creek Farm
2014-11-29 01:00:00 48 75 40.5 2015-01-01 13:17:33 Pearl Creek Farm
2014-11-29 01:30:00 46 78 39.4 2015-01-01 13:17:33 Pearl Creek Farm
2014-11-29 02:00:00 46 80 40.2 2015-01-01 13:17:33 Pearl Creek Farm
2014-11-29 02:30:00 45 80 39.2 2015-01-01 13:17:33 Pearl Creek Farm
2014-11-29 03:00:00 45 81 39.5 2015-01-01 13:17:33 Pearl Creek Farm
2014-11-29 03:30:00 44 82 38.7 2015-01-01 13:17:33 Pearl Creek Farm
2014-11-29 04:00:00 44 82 38.9 2015-01-01 13:17:33 Pearl Creek Farm
2014-11-29 04:30:00 46 89 42.8 2015-01-01 13:17:33 Pearl Creek Farm
2014-11-29 05:00:00 49 88 45.6 2015-01-01 13:17:33 Pearl Creek Farm
2014-11-29 05:30:00 49 86 45.0 2015-01-01 13:17:33 Pearl Creek Farm
2014-11-29 06:00:00 50 85 45.7 2015-01-01 13:17:33 Pearl Creek Farm
2014-11-29 06:30:00 50 83 45.1 2015-01-01 13:17:33 Pearl Creek Farm
2014-11-29 07:00:00 49 83 44.1 2015-01-01 13:17:33 Pearl Creek Farm
2014-11-29 07:30:00 47 84 42.4 2015-01-01 13:17:33 Pearl Creek Farm
2014-11-29 08:00:00 47 88 43.5 2015-01-01 13:17:33 Pearl Creek Farm
2014-11-29 08:30:00 49 87 45.3 2015-01-01 13:17:33 Pearl Creek Farm
2014-11-29 09:00:00 52 84 47.3 2015-01-01 13:17:33 Pearl Creek Farm
2014-11-29 09:30:00 54 81 48.3 2015-01-01 13:17:33 Pearl Creek Farm
2014-11-29 10:00:00 58 72 49.0 2015-01-01 13:17:33 Pearl Creek Farm
2014-11-29 10:30:00 61 68 50.4 2015-01-01 13:17:33 Pearl Creek Farm
2014-11-29 11:00:00 62 64 49.5 2015-01-01 13:17:33 Pearl Creek Farm
2014-11-29 11:30:00 64 61 50.1 2015-01-01 13:17:33 Pearl Creek Farm
2014-11-29 12:00:00 65 58 49.6 2015-01-01 13:17:33 Pearl Creek Farm
2014-11-29 12:30:00 66 57 50.1 2015-01-01 13:17:33 Pearl Creek Farm
2014-11-29 13:00:00 67 53 49.1 2015-01-01 13:17:33 Pearl Creek Farm
2014-11-29 13:30:00 68 52 49.7 2015-01-01 13:17:33 Pearl Creek Farm
2014-11-29 14:00:00 69 51 49.9 2015-01-01 13:17:33 Pearl Creek Farm
2014-11-29 14:30:00 70 48 49.4 2015-01-01 13:17:33 Pearl Creek Farm
2014-11-29 15:00:00 71 47 49.5 2015-01-01 13:17:33 Pearl Creek Farm
2014-11-29 15:30:00 71 44 48.0 2015-01-01 13:17:33 Pearl Creek Farm
2014-11-29 16:00:00 70 44 46.8 2015-01-01 13:17:33 Pearl Creek Farm
2014-11-29 16:30:00 69 45 46.8 2015-01-01 13:17:33 Pearl Creek Farm
2014-11-29 17:00:00 67 48 46.7 2015-01-01 13:17:33 Pearl Creek Farm
2014-11-29 17:30:00 65 52 46.7 2015-01-01 13:17:33 Pearl Creek Farm
2014-11-29 18:00:00 64 54 46.8 2015-01-01 13:17:33 Pearl Creek Farm
2014-11-29 18:30:00 64 55 47.5 2015-01-01 13:17:33 Pearl Creek Farm
2014-11-29 19:00:00 63 57 47.3 2015-01-01 13:17:33 Pearl Creek Farm
2014-11-29 19:30:00 63 59 48.2 2015-01-01 13:17:33 Pearl Creek Farm
2014-11-29 20:00:00 63 60 48.9 2015-01-01 13:17:33 Pearl Creek Farm
2014-11-29 20:30:00 63 61 49.4 2015-01-01 13:17:33 Pearl Creek Farm
2014-11-29 21:00:00 63 63 50.0 2015-01-01 13:17:33 Pearl Creek Farm
2014-11-29 21:30:00 63 64 50.4 2015-01-01 13:17:33 Pearl Creek Farm
2014-11-29 22:00:00 63 65 51.1 2015-01-01 13:17:33 Pearl Creek Farm
2014-11-29 22:30:00 63 67 51.7 2015-01-01 13:17:33 Pearl Creek Farm
2014-11-29 23:00:00 62 69 51.7 2015-01-01 13:17:33 Pearl Creek Farm
2014-11-29 23:30:00 62 70 52.1 2015-01-01 13:17:33 Pearl Creek Farm

A total of 48 rows are displayed.